createdAt,value
2022-12-03T00:01:28.494Z,13.17
2022-12-03T00:03:56.402Z,14.07
2022-12-03T00:06:25.626Z,16.97
2022-12-03T00:08:54.000Z,14.13
2022-12-03T00:11:21.762Z,16.03
2022-12-03T00:13:49.415Z,17.30
2022-12-03T00:16:17.134Z,15.37
2022-12-03T00:18:46.273Z,16.93
2022-12-03T00:21:26.263Z,16.03
2022-12-03T00:23:54.021Z,15.87
2022-12-03T00:26:21.730Z,16.97
2022-12-03T00:28:49.424Z,15.57
2022-12-03T00:31:17.189Z,13.93
2022-12-03T00:33:46.242Z,15.47
2022-12-03T00:36:13.855Z,15.77
2022-12-03T00:38:41.548Z,15.93
2022-12-03T00:41:09.201Z,18.17
2022-12-03T00:43:36.869Z,17.43
2022-12-03T00:46:04.579Z,17.23
2022-12-03T00:48:32.256Z,16.73
2022-12-03T00:51:01.260Z,16.03
2022-12-03T00:53:29.265Z,16.37
2022-12-03T00:55:56.924Z,14.60
2022-12-03T00:58:24.586Z,18.53
2022-12-03T01:00:52.334Z,14.40
2022-12-03T01:03:19.972Z,15.03
2022-12-03T01:05:47.671Z,14.83
2022-12-03T01:08:16.906Z,14.30
2022-12-03T01:10:44.666Z,15.50
2022-12-03T01:13:12.365Z,14.83
2022-12-03T01:15:40.098Z,16.60
2022-12-03T01:18:07.900Z,19.30
2022-12-03T01:20:36.302Z,18.40
2022-12-03T01:23:04.079Z,16.97
2022-12-03T01:25:33.095Z,18.27
2022-12-03T01:28:00.752Z,17.03
2022-12-03T01:30:28.461Z,17.73
2022-12-03T01:32:55.139Z,20.30
2022-12-03T01:35:22.813Z,16.07
2022-12-03T01:37:50.531Z,17.30
2022-12-03T01:40:21.264Z,15.60
2022-12-03T01:42:50.323Z,21.27
2022-12-03T01:45:24.700Z,15.30
2022-12-03T01:47:52.522Z,17.67
2022-12-03T01:50:24.750Z,15.97
2022-12-03T01:52:54.369Z,18.27
2022-12-03T01:55:25.364Z,18.47
2022-12-03T01:57:56.932Z,19.27
2022-12-03T02:00:27.773Z,18.90
2022-12-03T02:02:57.961Z,20.13
2022-12-03T02:05:29.470Z,18.77
2022-12-03T02:07:58.202Z,19.23
2022-12-03T02:10:28.997Z,18.10
2022-12-03T02:13:00.890Z,21.73
2022-12-03T02:15:29.072Z,23.17
2022-12-03T02:17:57.752Z,18.87
2022-12-03T02:20:25.844Z,18.77
2022-12-03T02:23:03.867Z,20.07
2022-12-03T02:25:35.514Z,18.27
2022-12-03T02:28:05.717Z,19.80
2022-12-03T02:30:33.755Z,19.60
2022-12-03T02:33:02.451Z,21.07
2022-12-03T02:35:33.989Z,21.73
2022-12-03T02:38:08.006Z,20.77
2022-12-03T02:40:37.347Z,21.30
2022-12-03T02:43:05.132Z,21.47
2022-12-03T02:45:36.962Z,19.20
2022-12-03T02:48:09.823Z,22.50
2022-12-03T02:50:41.285Z,21.93
2022-12-03T02:53:13.833Z,22.23
2022-12-03T02:55:43.478Z,21.33
2022-12-03T02:58:12.613Z,22.47
2022-12-03T03:00:40.783Z,22.87
2022-12-03T03:03:09.991Z,21.20
2022-12-03T03:05:40.099Z,22.20
2022-12-03T03:08:10.085Z,22.13
2022-12-03T03:10:39.759Z,23.97
2022-12-03T03:13:11.778Z,21.43
2022-12-03T03:15:40.491Z,23.40
2022-12-03T03:18:09.288Z,23.80
2022-12-03T03:20:37.815Z,25.73
2022-12-03T03:23:15.600Z,25.33
2022-12-03T03:25:47.045Z,22.57
2022-12-03T03:28:17.658Z,24.07
2022-12-03T03:30:45.881Z,26.20
2022-12-03T03:33:14.448Z,22.70
2022-12-03T03:35:43.139Z,25.43
2022-12-03T03:38:11.586Z,22.80
2022-12-03T03:40:40.231Z,22.93
2022-12-03T03:43:08.358Z,25.63
2022-12-03T03:45:37.468Z,25.63
2022-12-03T03:48:05.387Z,26.07
2022-12-03T03:50:33.729Z,22.40
2022-12-03T03:53:03.592Z,26.57
2022-12-03T03:55:31.731Z,22.73
2022-12-03T03:57:59.632Z,24.00
2022-12-03T04:00:27.518Z,25.73
2022-12-03T04:02:56.618Z,22.23
2022-12-03T04:05:25.660Z,27.27
2022-12-03T04:07:53.355Z,27.10
2022-12-03T04:10:38.959Z,25.43
2022-12-03T04:13:07.343Z,23.10
2022-12-03T04:15:35.011Z,28.70
2022-12-03T04:18:21.710Z,25.77
2022-12-03T04:20:49.474Z,23.30
2022-12-03T04:23:16.415Z,29.07
2022-12-03T04:26:01.728Z,26.00
2022-12-03T04:28:47.087Z,24.50
2022-12-03T04:31:32.540Z,28.63
2022-12-03T04:34:18.369Z,29.53
2022-12-03T04:36:46.123Z,27.50
2022-12-03T04:39:13.851Z,26.23
2022-12-03T04:41:41.656Z,28.40
2022-12-03T04:44:26.708Z,28.97
2022-12-03T04:46:54.425Z,30.27
2022-12-03T04:49:23.554Z,26.70
2022-12-03T04:51:51.284Z,28.13
2022-12-03T04:54:19.013Z,30.50
2022-12-03T04:56:46.681Z,27.67
2022-12-03T04:59:16.448Z,24.50
2022-12-03T05:01:44.765Z,26.47
2022-12-03T05:04:12.638Z,24.00
2022-12-03T05:06:42.237Z,29.53
2022-12-03T05:09:10.231Z,26.37
2022-12-03T05:11:37.944Z,30.70
2022-12-03T05:14:06.472Z,26.23
2022-12-03T05:16:34.349Z,28.23
2022-12-03T05:19:02.466Z,26.33
2022-12-03T05:21:29.266Z,26.77
2022-12-03T05:23:58.937Z,28.47
2022-12-03T05:26:26.645Z,26.67
2022-12-03T05:28:54.352Z,28.23
2022-12-03T05:31:22.155Z,24.83
2022-12-03T05:33:49.934Z,28.00
2022-12-03T05:36:17.688Z,23.93
2022-12-03T05:38:45.381Z,29.03
2022-12-03T05:41:32.055Z,29.43
2022-12-03T05:43:59.800Z,25.07
2022-12-03T05:46:27.633Z,24.50
2022-12-03T05:48:55.466Z,27.10
2022-12-03T05:51:23.156Z,28.43
2022-12-03T05:53:50.928Z,28.87
2022-12-03T05:56:20.042Z,29.40
2022-12-03T05:58:47.809Z,28.80
2022-12-03T06:01:15.494Z,28.37
2022-12-03T06:03:43.296Z,26.97
2022-12-03T06:06:11.134Z,25.30
2022-12-03T06:08:38.831Z,29.47
2022-12-03T06:11:06.891Z,27.47
2022-12-03T06:13:36.014Z,28.00
2022-12-03T06:16:03.894Z,27.80
2022-12-03T06:18:31.896Z,27.73
2022-12-03T06:20:59.659Z,29.03
2022-12-03T06:23:27.383Z,25.60
2022-12-03T06:25:55.085Z,24.37
2022-12-03T06:28:22.765Z,25.10
2022-12-03T06:30:51.901Z,27.17
2022-12-03T06:33:19.717Z,25.27
2022-12-03T06:35:47.447Z,24.57
2022-12-03T06:38:15.157Z,27.77
2022-12-03T06:40:42.876Z,25.60
2022-12-03T06:43:10.746Z,30.37
2022-12-03T06:45:42.054Z,26.13
2022-12-03T06:48:13.815Z,22.73
2022-12-03T06:50:41.565Z,24.00
2022-12-03T06:53:09.239Z,26.83
2022-12-03T06:55:36.955Z,26.50
2022-12-03T06:58:04.783Z,24.53
2022-12-03T07:00:32.388Z,22.73
2022-12-03T07:03:00.201Z,25.57
2022-12-03T07:05:29.347Z,26.07
2022-12-03T07:07:57.180Z,27.47
2022-12-03T07:10:24.967Z,25.40
2022-12-03T07:12:52.605Z,22.37
2022-12-03T07:15:20.478Z,28.80
2022-12-03T07:17:48.231Z,24.00
2022-12-03T07:20:16.304Z,23.57
2022-12-03T07:22:45.351Z,26.63
2022-12-03T07:25:19.542Z,27.30
2022-12-03T07:27:50.455Z,24.40
2022-12-03T07:30:18.516Z,22.87
2022-12-03T07:32:46.177Z,23.33
2022-12-03T07:35:14.451Z,27.50
2022-12-03T07:37:42.335Z,21.77
2022-12-03T07:40:12.892Z,21.30
2022-12-03T07:42:40.644Z,22.67
2022-12-03T07:45:09.869Z,21.50
2022-12-03T07:47:37.556Z,22.27
2022-12-03T07:50:05.775Z,21.83
2022-12-03T07:52:33.537Z,25.07
2022-12-03T07:55:01.198Z,19.20
2022-12-03T07:57:30.208Z,20.70
2022-12-03T07:59:57.913Z,20.67
2022-12-03T08:02:25.674Z,20.20
2022-12-03T08:04:53.625Z,18.80
2022-12-03T08:07:21.503Z,22.67
2022-12-03T08:09:49.328Z,25.97
2022-12-03T08:12:20.944Z,22.70
2022-12-03T08:14:50.336Z,21.03
2022-12-03T08:17:19.854Z,22.67
2022-12-03T08:19:48.295Z,21.23
2022-12-03T08:22:17.211Z,21.83
2022-12-03T08:24:45.481Z,19.50
2022-12-03T08:27:19.452Z,21.57
2022-12-03T08:29:47.567Z,23.63
2022-12-03T08:32:16.693Z,21.83
2022-12-03T08:34:45.826Z,22.03
2022-12-03T08:37:17.685Z,20.83
2022-12-03T08:39:46.902Z,21.57
2022-12-03T08:42:37.748Z,20.07
2022-12-03T08:45:40.625Z,22.13
2022-12-03T08:48:34.126Z,20.87
2022-12-03T08:51:06.005Z,19.63
2022-12-03T08:53:36.301Z,21.10
2022-12-03T08:56:07.046Z,20.50
2022-12-03T08:58:39.260Z,18.30
2022-12-03T09:01:30.352Z,20.90
2022-12-03T09:04:15.620Z,18.80
2022-12-03T09:06:43.458Z,24.00
2022-12-03T09:09:11.172Z,21.53
2022-12-03T09:11:38.929Z,24.87
2022-12-03T09:14:07.180Z,21.60
2022-12-03T09:16:34.858Z,21.70
2022-12-03T09:19:04.112Z,23.83
2022-12-03T09:21:31.868Z,18.67
2022-12-03T09:23:59.838Z,23.43
2022-12-03T09:26:28.302Z,21.80
2022-12-03T09:28:56.189Z,22.33
2022-12-03T09:31:23.918Z,21.90
2022-12-03T09:33:51.641Z,20.90
2022-12-03T09:36:20.746Z,20.67
2022-12-03T09:38:48.505Z,19.70
2022-12-03T09:41:16.200Z,25.53
2022-12-03T09:44:03.326Z,22.63
2022-12-03T09:46:32.259Z,23.47
2022-12-03T09:49:00.012Z,20.83
2022-12-03T09:51:34.754Z,23.57
2022-12-03T09:54:03.911Z,22.77
2022-12-03T09:56:31.950Z,24.97
2022-12-03T09:59:00.120Z,25.43
2022-12-03T10:01:30.253Z,21.87
2022-12-03T10:03:59.381Z,22.87
2022-12-03T10:06:27.116Z,28.07
2022-12-03T10:08:56.686Z,19.80
2022-12-03T10:11:26.398Z,21.57
2022-12-03T10:13:56.440Z,24.93
2022-12-03T10:16:24.971Z,24.70
2022-12-03T10:18:54.416Z,23.40
2022-12-03T10:21:26.795Z,24.00
2022-12-03T10:24:20.015Z,27.47
2022-12-03T10:26:49.676Z,25.80
2022-12-03T10:29:39.436Z,27.30
2022-12-03T10:32:10.296Z,21.07
2022-12-03T10:34:39.385Z,39.87
2022-12-03T10:37:12.959Z,23.67
2022-12-03T10:39:58.849Z,26.63
2022-12-03T10:42:27.613Z,23.77
2022-12-03T10:45:15.389Z,22.07
2022-12-03T10:47:43.691Z,22.67
2022-12-03T10:50:18.274Z,23.70
2022-12-03T10:52:46.731Z,24.23
2022-12-03T10:55:15.901Z,20.30
2022-12-03T10:57:45.826Z,23.77
2022-12-03T11:00:19.493Z,24.57
2022-12-03T11:02:53.370Z,24.70
2022-12-03T11:05:27.773Z,24.53
2022-12-03T11:07:55.738Z,23.20
2022-12-03T11:10:23.634Z,26.07
2022-12-03T11:13:29.492Z,21.37
2022-12-03T11:15:59.600Z,23.67
2022-12-03T11:19:02.255Z,24.03
2022-12-03T11:21:32.927Z,28.90
2022-12-03T11:24:22.783Z,26.53
2022-12-03T11:27:18.815Z,26.07
2022-12-03T11:30:01.939Z,24.27
2022-12-03T11:33:07.258Z,27.37
2022-12-03T11:36:15.599Z,26.30
2022-12-03T11:38:53.228Z,25.53
2022-12-03T11:41:23.819Z,25.30
2022-12-03T11:44:19.699Z,29.03
2022-12-03T11:46:48.530Z,24.87
2022-12-03T11:49:36.261Z,25.03
2022-12-03T11:52:20.901Z,25.43
2022-12-03T11:54:52.984Z,26.70
2022-12-03T11:57:30.822Z,27.47
2022-12-03T12:00:09.168Z,28.37
2022-12-03T12:02:36.996Z,29.00
2022-12-03T12:05:19.576Z,28.20
2022-12-03T12:07:49.232Z,28.17
2022-12-03T12:10:42.341Z,31.50
2022-12-03T12:13:42.463Z,34.73
2022-12-03T12:16:10.536Z,28.30
2022-12-03T12:18:40.389Z,28.87
2022-12-03T12:21:44.351Z,32.40
2022-12-03T12:24:43.050Z,32.43
2022-12-03T12:27:13.220Z,26.90
2022-12-03T12:29:42.882Z,28.87
2022-12-03T12:32:16.173Z,31.13
2022-12-03T12:34:46.265Z,30.60
2022-12-03T12:37:23.805Z,34.23
2022-12-03T12:39:57.165Z,30.63
2022-12-03T12:42:33.867Z,29.13
2022-12-03T12:45:13.125Z,29.37
2022-12-03T12:47:49.778Z,33.57
2022-12-03T12:50:19.688Z,35.47
2022-12-03T12:52:53.607Z,37.53
2022-12-03T12:55:24.233Z,32.07
2022-12-03T12:57:52.601Z,30.73
2022-12-03T13:00:22.509Z,32.50
2022-12-03T13:02:55.560Z,28.33
2022-12-03T13:05:27.603Z,32.40
2022-12-03T13:07:55.916Z,32.50
2022-12-03T13:10:43.361Z,35.60
2022-12-03T13:13:26.044Z,32.20
2022-12-03T13:16:02.468Z,33.13
2022-12-03T13:18:41.581Z,37.13
2022-12-03T13:21:23.368Z,37.10
2022-12-03T13:23:53.446Z,35.20
2022-12-03T13:29:16.369Z,35.60
2022-12-03T13:31:50.029Z,34.90
2022-12-03T13:34:21.728Z,32.30
2022-12-03T13:36:56.991Z,34.03
2022-12-03T13:39:30.779Z,35.73
2022-12-03T13:42:24.351Z,34.17
2022-12-03T13:44:54.282Z,38.47
2022-12-03T13:47:23.848Z,36.93
2022-12-03T13:49:54.467Z,34.67
2022-12-03T13:52:24.830Z,39.93
2022-12-03T13:54:54.895Z,34.63
2022-12-03T13:57:24.402Z,39.97
2022-12-03T13:59:52.542Z,36.90
2022-12-03T14:02:20.630Z,38.53
2022-12-03T14:04:48.428Z,38.93
2022-12-03T14:07:16.118Z,39.37
2022-12-03T14:09:43.916Z,36.77
2022-12-03T14:12:26.937Z,37.57
2022-12-03T14:14:56.044Z,40.17
2022-12-03T14:17:23.751Z,33.23
2022-12-03T14:19:51.498Z,36.63
2022-12-03T14:22:23.148Z,38.13
2022-12-03T14:24:51.053Z,36.30
2022-12-03T14:27:18.906Z,36.97
2022-12-03T14:29:46.691Z,35.23
2022-12-03T14:32:15.923Z,38.23
2022-12-03T14:34:43.886Z,36.17
2022-12-03T14:37:11.547Z,41.93
2022-12-03T14:39:39.507Z,33.53
2022-12-03T14:42:17.012Z,39.23
2022-12-03T14:44:46.586Z,35.70
2022-12-03T14:47:17.360Z,36.97
2022-12-03T14:49:45.378Z,35.50
2022-12-03T14:52:13.150Z,36.80
2022-12-03T14:54:42.340Z,37.50
2022-12-03T14:57:11.579Z,35.23
2022-12-03T14:59:39.313Z,35.23
2022-12-03T15:02:07.558Z,40.43
2022-12-03T15:04:36.654Z,34.07
2022-12-03T15:07:04.580Z,41.07
2022-12-03T15:09:32.505Z,43.27
2022-12-03T15:12:00.667Z,38.43
2022-12-03T15:14:28.812Z,38.30
2022-12-03T15:16:56.873Z,37.95
2022-12-03T15:19:24.624Z,39.03
2022-12-03T15:21:53.706Z,31.87
2022-12-03T15:24:21.572Z,34.93
2022-12-03T15:26:49.485Z,32.83
2022-12-03T15:29:17.227Z,36.90
2022-12-03T15:31:44.989Z,32.50
2022-12-03T15:34:16.100Z,38.63
2022-12-03T15:36:46.508Z,33.40
2022-12-03T15:39:15.589Z,34.03
2022-12-03T15:41:43.250Z,31.80
2022-12-03T15:44:10.979Z,35.03
2022-12-03T15:46:38.897Z,33.10
2022-12-03T15:49:06.657Z,33.00
2022-12-03T15:51:34.588Z,30.93
2022-12-03T15:54:03.992Z,32.80
2022-12-03T15:56:37.355Z,33.23
2022-12-03T15:59:05.116Z,32.30
2022-12-03T16:01:32.951Z,36.30
2022-12-03T16:04:00.915Z,33.40
2022-12-03T16:06:28.567Z,35.07
2022-12-03T16:08:56.257Z,39.03
2022-12-03T16:11:23.976Z,34.00
2022-12-03T16:13:53.058Z,35.37
2022-12-03T16:16:20.915Z,34.77
2022-12-03T16:18:48.671Z,33.43
2022-12-03T16:21:16.388Z,32.93
2022-12-03T16:23:44.142Z,34.33
2022-12-03T16:26:11.898Z,34.23
2022-12-03T16:28:39.740Z,31.43
2022-12-03T16:31:08.891Z,34.97
2022-12-03T16:33:36.627Z,30.80
2022-12-03T16:36:04.802Z,31.57
2022-12-03T16:38:33.603Z,32.83
2022-12-03T16:41:01.471Z,31.83
2022-12-03T16:43:29.280Z,32.30
2022-12-03T16:46:20.167Z,33.17
2022-12-03T16:48:49.651Z,35.00
2022-12-03T16:51:19.237Z,35.47
2022-12-03T16:53:47.257Z,31.43
2022-12-03T16:56:15.507Z,34.60
2022-12-03T16:58:43.694Z,31.93
2022-12-03T17:01:12.023Z,32.47
2022-12-03T17:03:39.887Z,34.73
2022-12-03T17:06:09.159Z,30.90
2022-12-03T17:08:36.855Z,33.30
2022-12-03T17:11:04.735Z,34.10
2022-12-03T17:13:32.505Z,32.50
2022-12-03T17:16:00.834Z,33.77
2022-12-03T17:18:28.836Z,34.63
2022-12-03T17:21:06.581Z,30.67
2022-12-03T17:23:35.649Z,33.97
2022-12-03T17:26:03.424Z,33.30
2022-12-03T17:28:31.339Z,37.20
2022-12-03T17:30:59.285Z,34.13
2022-12-03T17:33:27.066Z,37.13
2022-12-03T17:35:54.867Z,33.33
2022-12-03T17:38:22.634Z,36.17
2022-12-03T17:40:51.766Z,34.80
2022-12-03T17:43:19.451Z,33.47
2022-12-03T17:45:47.131Z,34.93
2022-12-03T17:48:15.675Z,35.57
2022-12-03T17:50:43.645Z,31.50
2022-12-03T17:53:11.394Z,37.47
2022-12-03T17:55:44.728Z,32.97
2022-12-03T17:58:14.790Z,38.97
2022-12-03T18:00:44.708Z,33.47
2022-12-03T18:03:12.508Z,30.43
2022-12-03T18:05:40.364Z,36.00
2022-12-03T18:08:08.278Z,32.77
2022-12-03T18:10:36.305Z,31.13
2022-12-03T18:13:04.192Z,33.73
2022-12-03T18:15:33.698Z,33.50
2022-12-03T18:18:01.423Z,33.77
2022-12-03T18:20:29.323Z,36.30
2022-12-03T18:22:58.624Z,34.90
2022-12-03T18:25:26.531Z,34.97
2022-12-03T18:27:54.230Z,34.23
2022-12-03T18:30:22.317Z,35.10
2022-12-03T18:32:51.436Z,35.17
2022-12-03T18:35:19.987Z,34.93
2022-12-03T18:37:47.906Z,32.93
2022-12-03T18:40:20.001Z,30.97
2022-12-03T18:42:47.897Z,32.57
2022-12-03T18:45:16.351Z,33.80
2022-12-03T18:47:44.554Z,32.33
2022-12-03T18:50:14.734Z,32.23
2022-12-03T18:52:42.593Z,30.10
2022-12-03T18:55:16.078Z,33.90
2022-12-03T18:57:43.816Z,33.43
2022-12-03T19:00:13.924Z,33.50
2022-12-03T19:05:32.353Z,33.27
2022-12-03T19:08:00.344Z,33.70
2022-12-03T19:10:28.518Z,34.20
2022-12-03T19:12:56.295Z,33.50
2022-12-03T19:15:24.198Z,35.13
2022-12-03T19:17:52.585Z,33.07
2022-12-03T19:20:20.658Z,33.43
2022-12-03T19:22:49.737Z,33.73
2022-12-03T19:25:17.503Z,33.30
2022-12-03T19:27:45.233Z,30.23
2022-12-03T19:30:13.868Z,32.27
2022-12-03T19:32:41.520Z,31.03
2022-12-03T19:35:11.241Z,32.27
2022-12-03T19:37:39.224Z,31.87
2022-12-03T19:40:11.152Z,29.83
2022-12-03T19:42:38.857Z,33.57
2022-12-03T19:45:07.870Z,32.60
2022-12-03T19:47:35.970Z,33.67
2022-12-03T19:50:03.755Z,31.47
2022-12-03T19:52:31.852Z,30.70
2022-12-03T19:54:59.616Z,35.13
2022-12-03T19:57:29.184Z,29.37
2022-12-03T19:59:57.382Z,31.93
2022-12-03T20:02:25.544Z,31.87
2022-12-03T20:04:56.390Z,33.13
2022-12-03T20:07:24.103Z,30.17
2022-12-03T20:09:52.732Z,33.17
2022-12-03T20:12:20.596Z,29.80
2022-12-03T20:14:50.155Z,28.80
2022-12-03T20:17:17.870Z,31.50
2022-12-03T20:19:45.561Z,29.27
2022-12-03T20:22:13.250Z,28.87
2022-12-03T20:24:41.020Z,30.97
2022-12-03T20:27:08.752Z,28.00
2022-12-03T20:29:36.522Z,29.53
2022-12-03T20:32:06.997Z,29.90
2022-12-03T20:34:35.938Z,31.50
2022-12-03T20:37:04.280Z,30.53
2022-12-03T20:39:31.966Z,30.70
2022-12-03T20:41:59.606Z,31.53
2022-12-03T20:44:27.307Z,30.00
2022-12-03T20:46:55.153Z,29.37
2022-12-03T20:49:24.238Z,28.37
2022-12-03T20:51:51.931Z,28.97
2022-12-03T20:54:19.593Z,29.67
2022-12-03T20:56:47.393Z,28.80
2022-12-03T20:59:17.758Z,32.27
2022-12-03T21:01:47.072Z,27.60
2022-12-03T21:04:16.164Z,31.40
2022-12-03T21:06:46.230Z,30.80
2022-12-03T21:09:13.992Z,28.70
2022-12-03T21:11:42.536Z,31.80
2022-12-03T21:14:11.938Z,28.23
2022-12-03T21:19:29.849Z,30.83
2022-12-03T21:21:58.945Z,25.50
2022-12-03T21:24:26.609Z,28.00
2022-12-03T21:26:57.829Z,27.17
2022-12-03T21:29:25.914Z,23.93
2022-12-03T21:31:53.655Z,28.43
2022-12-03T21:34:21.451Z,28.80
2022-12-03T21:36:49.092Z,28.23
2022-12-03T21:39:18.713Z,28.60
2022-12-03T21:42:34.133Z,27.47
2022-12-03T21:44:34.973Z,29.07
2022-12-03T21:47:10.159Z,26.87
2022-12-03T21:49:41.938Z,25.83
2022-12-03T21:52:09.791Z,24.93
2022-12-03T21:54:38.896Z,24.57
2022-12-03T21:57:06.598Z,25.23
2022-12-03T21:59:34.554Z,27.37
2022-12-03T22:02:02.334Z,23.20
2022-12-03T22:04:30.156Z,24.43
2022-12-03T22:06:58.126Z,23.00
2022-12-03T22:09:26.846Z,25.20
2022-12-03T22:11:59.173Z,25.57
2022-12-03T22:14:27.511Z,20.53
2022-12-03T22:16:55.269Z,20.43
2022-12-03T22:19:23.783Z,21.53
2022-12-03T22:21:51.586Z,24.97
2022-12-03T22:24:19.665Z,20.93
2022-12-03T22:26:47.425Z,19.03
2022-12-03T22:29:16.827Z,22.67
2022-12-03T22:31:44.585Z,22.77
2022-12-03T22:34:12.456Z,22.43
2022-12-03T22:36:40.207Z,21.30
2022-12-03T22:39:07.941Z,19.33
2022-12-03T22:41:35.663Z,20.10
2022-12-03T22:44:03.361Z,23.17
2022-12-03T22:46:32.519Z,20.40
2022-12-03T22:49:06.521Z,20.47
2022-12-03T22:51:34.988Z,17.97
2022-12-03T22:54:03.031Z,18.93
2022-12-03T22:56:31.393Z,19.93
2022-12-03T22:59:00.356Z,15.53
2022-12-03T23:01:30.270Z,16.87
2022-12-03T23:03:59.770Z,17.57
2022-12-03T23:06:28.338Z,16.00
2022-12-03T23:08:57.259Z,15.37
2022-12-03T23:11:25.590Z,15.60
2022-12-03T23:13:53.977Z,17.33
2022-12-03T23:16:26.135Z,17.90
2022-12-03T23:18:54.201Z,18.67
2022-12-03T23:21:29.482Z,16.47
2022-12-03T23:23:57.945Z,16.17
2022-12-03T23:26:25.688Z,14.90
2022-12-03T23:28:53.417Z,16.33
2022-12-03T23:31:23.316Z,14.47
2022-12-03T23:33:52.039Z,16.33
2022-12-03T23:36:21.474Z,15.93
2022-12-03T23:38:50.916Z,16.83
2022-12-03T23:41:21.120Z,16.13
2022-12-03T23:43:48.995Z,14.37
2022-12-03T23:46:18.632Z,14.97
2022-12-03T23:48:46.894Z,13.73
2022-12-03T23:51:16.284Z,15.20
2022-12-03T23:53:44.903Z,13.20
2022-12-03T23:56:16.812Z,13.27
2022-12-03T23:58:45.124Z,14.23
